METAR Data
IDs: Format: Raw Decoded Include TAF

Data at: 0555 UTC 07 Dec 2022

KMMV 070553Z AUTO 00000KT 4SM BR OVC045 03/03 A3020 RMK AO2 SLP228 T00330028 10050 20033 53002
KMMV 070453Z AUTO 00000KT 6SM BR OVC046 04/03 A3020 RMK AO2 SLP227 T00390028
KMMV 070418Z AUTO 00000KT 6SM BR SCT014 OVC048 04/03 A3020 RMK AO2 T00390028
KMMV 070353Z AUTO 00000KT 5SM BR BKN014 OVC048 04/03 A3019 RMK AO2 SLP225 T00390028
KMMV 070351Z AUTO 00000KT 5SM BR BKN014 OVC048 04/03 A3019 RMK AO2
KMMV 070253Z AUTO 00000KT 6SM BR OVC048 04/02 A3018 RMK AO2 SLP221 T00390022 51004
KMMV 070153Z AUTO 00000KT 6SM BR OVC050 04/03 A3018 RMK AO2 SLP221 T00440028
KMMV 070143Z AUTO 00000KT 6SM BR SCT014 OVC050 05/03 A3018 RMK AO2 T00500028
KMMV 070111Z AUTO 00000KT 7SM BKN014 OVC050 05/02 A3018 RMK AO2 T00500022
KMMV 070053Z AUTO 00000KT 7SM FEW014 OVC049 05/02 A3018 RMK AO2 SLP220 T00500022
KMMV 062353Z AUTO 00000KT 5SM HZ FEW012 OVC050 05/02 A3017 RMK AO2 SLP217 T00500022 10056 20028 50000
KMMV 062253Z AUTO 00000KT 7SM SCT013 OVC049 06/02 A3017 RMK AO2 SLP218 T00560022
KMMV 062242Z AUTO 00000KT 7SM BKN013 OVC049 06/02 A3017 RMK AO2 T00560022
KMMV 062224Z AUTO 00000KT 7SM FEW011 OVC049 05/02 A3017 RMK AO2 T00500022
KMMV 062153Z AUTO 00000KT 6SM HZ BKN010 OVC050 05/02 A3017 RMK AO2 SLP217 T00500022
KMMV 062149Z AUTO 00000KT 6SM HZ BKN009 OVC050 05/02 A3017 RMK AO2
KMMV 062135Z AUTO 00000KT 6SM BR SCT009 OVC050 04/02 A3017 RMK AO2 T00440022
KMMV 062053Z AUTO 00000KT 6SM BR BKN008 OVC049 04/02 A3017 RMK AO2 SLP217 T00440022 50000
KMMV 061953Z AUTO 00000KT 6SM BR OVC008 04/02 A3018 RMK AO2 SLP220 T00390017
KMMV 061853Z AUTO 00000KT 6SM BR OVC006 03/02 A3018 RMK AO2 SLP221 T00330017
KMMV 061803Z AUTO 00000KT 5SM BR OVC005 03/02 A3017 RMK AO2 T00280017
KMMV 061753Z AUTO 00000KT 4SM BR OVC004 03/02 A3017 RMK AO2 SLP217 T00280017 10028 20022 52008
KMMV 061722Z AUTO 00000KT 3SM BR OVC004 02/02 A3016 RMK AO2 T00220017
KMMV 061712Z AUTO 00000KT 2 1/2SM BR OVC004 02/02 A3016 RMK AO2 T00220017
KMMV 061653Z AUTO 00000KT 4SM BR OVC004 02/02 A3016 RMK AO2 SLP213 T00220017
KMMV 061649Z AUTO 00000KT 4SM BR OVC004 02/02 A3016 RMK AO2
KMMV 061553Z AUTO 00000KT 5SM BR OVC005 02/02 A3015 RMK AO2 SLP209 T00220017
KMMV 061453Z AUTO 00000KT 5SM BR OVC006 02/01 A3014 RMK AO2 SLP205 T00220011 53006
KMMV 061434Z AUTO 00000KT 6SM BR OVC005 02/01 A3013 RMK AO2 T00220011
KMMV 061353Z AUTO 00000KT 5SM BR OVC004 02/01 A3012 RMK AO2 SLP201 T00220011
KMMV 061323Z AUTO 00000KT 3SM BR OVC004 02/01 A3012 RMK AO2 T00220011
KMMV 061253Z AUTO 00000KT 2 1/2SM BR OVC002 02/02 A3012 RMK AO2 SLP200 T00220022
KMMV 061251Z AUTO 00000KT 2 1/2SM BR OVC002 02/02 A3012 RMK AO2
KMMV 061231Z AUTO 00000KT 1 1/2SM BR OVC002 02/02 A3011 RMK AO2 T00220017
KMMV 061224Z AUTO 00000KT 2SM BR OVC002 02/02 A3011 RMK AO2 T00220017
KMMV 061212Z AUTO 00000KT 1 3/4SM BR OVC002 02/02 A3012 RMK AO2 T00220017
KMMV 061205Z AUTO 00000KT 2SM BR OVC002 02/02 A3012 RMK AO2 T00220017
KMMV 061153Z AUTO 10003KT 2 1/2SM BR OVC003 02/01 A3012 RMK AO2 SLP198 T00220011 10028 20022 50005
KMMV 061109Z AUTO 12003KT 2 1/2SM BR OVC003 02/02 A3012 RMK AO2 T00220017
KMMV 061053Z AUTO 12003KT 3SM BR OVC003 02/02 A3012 RMK AO2 SLP200 T00220017
KMMV 060953Z AUTO 14003KT 3SM BR OVC003 02/02 A3011 RMK AO2 SLP196 T00220017
KMMV 060943Z AUTO 16003KT 3SM BR OVC003 03/02 A3011 RMK AO2 T00280017
KMMV 060853Z AUTO 00000KT 2 1/2SM BR OVC004 03/02 A3010 RMK AO2 SLP194 T00280017 50006
KMMV 060817Z AUTO 00000KT 2 1/2SM BR OVC004 02/02 A3010 RMK AO2 T00220017
KMMV 060753Z AUTO 00000KT 3SM BR OVC004 02/02 A3010 RMK AO2 SLP194 T00220017 400560000
KMMV 060653Z AUTO 00000KT 3SM BR OVC006 02/02 A3010 RMK AO2 SLP192 T00220017
KMMV 060553Z AUTO 00000KT 4SM BR OVC007 02/01 A3008 RMK AO2 SLP188 T00220011 10039 20017 51014
KMMV 060453Z AUTO 10003KT 4SM BR FEW004 BKN009 OVC049 02/01 A3007 RMK AO2 SLP184 T00220011
KMMV 060438Z AUTO 10003KT 5SM BR SCT004 OVC049 02/01 A3007 RMK AO2 T00220011
KMMV 060416Z AUTO 11003KT 5SM BR BKN004 OVC049 02/01 A3007 RMK AO2 T00220011
KMMV 060407Z AUTO 09003KT 5SM BR SCT004 OVC049 02/01 A3006 RMK AO2 T00220011
KMMV 060353Z AUTO 10004KT 5SM BR OVC049 02/01 A3006 RMK AO2 SLP180 T00170006
KMMV 060253Z AUTO 12005KT 6SM BR OVC050 02/01 A3004 RMK AO2 SLP174 T00170006 51009
KMMV 060153Z AUTO 13006KT 8SM OVC049 02/01 A3004 RMK AO2 SLP172 T00220006
KMMV 060109Z AUTO 14006KT 9SM SCT012 OVC048 03/01 A3003 RMK AO2 T00280011
KMMV 060053Z AUTO 14006KT 9SM BKN011 OVC044 03/01 A3002 RMK AO2 SLP167 T00280011
KMMV 052353Z AUTO 14006KT 10SM CLR 04/02 A3001 RMK AO2 SLP164 T00390017 10056 20011 53002
KMMV 052253Z AUTO 14004KT 10SM CLR 06/02 A3000 RMK AO2 SLP159 T00560022
KMMV 052153Z AUTO 00000KT 10SM CLR 06/02 A3000 RMK AO2 SLP160 T00560022
KMMV 052053Z AUTO 13003KT 10SM FEW007 04/02 A3001 RMK AO2 SLP162 T00440017 58007
KMMV 052039Z AUTO 15003KT 10SM SCT006 04/02 A3001 RMK AO2 T00390017
KMMV 052012Z AUTO 13005KT 10SM BKN006 03/02 A3001 RMK AO2 T00330017
KMMV 051953Z AUTO 14003KT 9SM FEW005 02/01 A3002 RMK AO2 SLP165 T00220011
KMMV 051945Z AUTO 13005KT 9SM FEW005 02/01 A3002 RMK AO2 T00220011
KMMV 051938Z AUTO 14004KT 8SM BKN005 02/01 A3002 RMK AO2 T00220011
KMMV 051853Z AUTO 00000KT 6SM BR OVC003 02/01 A3003 RMK AO2 SLP170 T00170011
KMMV 051843Z AUTO 00000KT 5SM BR OVC003 02/01 A3003 RMK AO2 T00170011
KMMV 051830Z AUTO 00000KT 4SM BR OVC002 02/01 A3003 RMK AO2 T00170011
KMMV 051822Z AUTO 00000KT 2 1/2SM BR OVC002 01/01 A3003 RMK AO2 T00110011
KMMV 051811Z AUTO 00000KT 1 3/4SM BR OVC002 01/01 A3003 RMK AO2 T00110011
KMMV 051804Z AUTO 00000KT 3/4SM BR OVC002 02/02 A3003 RMK AO2 T00170017